createdAt,value
2019-05-10T00:01:50.642Z,78.78
2019-05-10T00:05:11.992Z,78.78
2019-05-10T00:08:33.952Z,79.13
2019-05-10T00:11:55.778Z,79.37
2019-05-10T00:14:59.588Z,79.03
2019-05-10T00:18:03.300Z,79.74
2019-05-10T00:21:07.360Z,79.86
2019-05-10T00:24:11.081Z,80.08
2019-05-10T00:27:15.188Z,79.83
2019-05-10T00:30:19.067Z,79.76
2019-05-10T00:33:22.796Z,80.12
2019-05-10T00:36:26.582Z,80.39
2019-05-10T00:39:30.391Z,80.54
2019-05-10T00:42:34.362Z,80.25
2019-05-10T00:45:38.099Z,79.87
2019-05-10T00:48:42.078Z,80.23
2019-05-10T00:51:45.804Z,80.20
2019-05-10T00:54:49.535Z,80.32
2019-05-10T00:57:53.300Z,80.24
2019-05-10T01:00:57.431Z,80.00
2019-05-10T01:04:01.130Z,80.06
2019-05-10T01:07:05.146Z,80.26
2019-05-10T01:10:09.227Z,80.32
2019-05-10T01:13:13.247Z,80.23
2019-05-10T01:16:17.261Z,80.63
2019-05-10T01:19:20.972Z,80.69
2019-05-10T01:22:24.777Z,80.81
2019-05-10T01:25:35.277Z,81.12
2019-05-10T01:28:34.254Z,80.95
2019-05-10T01:31:38.079Z,81.19
2019-05-10T01:34:41.792Z,81.27
2019-05-10T01:37:45.497Z,81.05
2019-05-10T01:40:49.198Z,80.89
2019-05-10T01:43:52.907Z,80.85
2019-05-10T01:46:56.599Z,81.37
2019-05-10T01:50:00.399Z,81.05
2019-05-10T01:53:04.098Z,81.26
2019-05-10T01:56:07.799Z,81.22
2019-05-10T01:59:11.813Z,80.87
2019-05-10T02:02:15.607Z,81.18
2019-05-10T02:05:19.475Z,81.39
2019-05-10T02:08:23.466Z,81.34
2019-05-10T02:11:27.234Z,81.49
2019-05-10T02:14:30.959Z,81.22
2019-05-10T02:17:34.754Z,81.15
2019-05-10T02:20:38.452Z,81.29
2019-05-10T02:23:42.155Z,81.49
2019-05-10T02:26:45.844Z,81.66
2019-05-10T02:29:49.544Z,81.78
2019-05-10T02:32:53.244Z,81.87
2019-05-10T02:35:56.937Z,82.10
2019-05-10T02:39:00.639Z,82.04
2019-05-10T02:42:04.694Z,82.47
2019-05-10T02:45:08.783Z,82.36
2019-05-10T02:48:12.556Z,82.53
2019-05-10T02:51:16.243Z,82.28
2019-05-10T02:54:20.018Z,82.67
2019-05-10T02:57:23.792Z,82.61
2019-05-10T03:00:29.319Z,82.50
2019-05-10T03:03:33.365Z,82.15
2019-05-10T03:06:39.312Z,82.55
2019-05-10T03:09:46.325Z,82.37
2019-05-10T03:12:53.410Z,82.58
2019-05-10T03:15:59.236Z,82.99
2019-05-10T03:19:03.869Z,82.20
2019-05-10T03:22:07.677Z,82.71
2019-05-10T03:25:11.965Z,82.13
2019-05-10T03:28:15.919Z,82.27
2019-05-10T03:31:19.739Z,82.36
2019-05-10T03:34:23.450Z,82.71
2019-05-10T03:37:27.586Z,82.35
2019-05-10T03:40:31.553Z,82.45
2019-05-10T03:43:35.290Z,82.35
2019-05-10T03:46:39.009Z,82.77
2019-05-10T03:49:42.976Z,82.77
2019-05-10T03:52:51.705Z,81.98
2019-05-10T03:55:52.113Z,81.74
2019-05-10T03:58:55.825Z,81.16
2019-05-10T04:01:59.855Z,81.55
2019-05-10T04:05:03.596Z,82.39
2019-05-10T04:08:07.368Z,83.19
2019-05-10T04:11:11.355Z,83.12
2019-05-10T04:14:15.128Z,82.95
2019-05-10T04:17:18.869Z,82.04
2019-05-10T04:20:22.591Z,82.99
2019-05-10T04:23:26.308Z,83.17
2019-05-10T04:26:30.021Z,82.82
2019-05-10T04:29:33.823Z,82.65
2019-05-10T04:32:37.552Z,82.28
2019-05-10T04:35:41.569Z,81.93
2019-05-10T04:38:45.271Z,82.18
2019-05-10T04:41:49.244Z,82.01
2019-05-10T04:44:54.113Z,81.28
2019-05-10T04:47:57.894Z,81.30
2019-05-10T04:51:01.610Z,80.90
2019-05-10T04:54:05.559Z,81.43
2019-05-10T04:57:09.332Z,81.62
2019-05-10T05:00:13.206Z,81.46
2019-05-10T05:03:16.919Z,81.97
2019-05-10T05:06:20.980Z,81.98
2019-05-10T05:09:24.690Z,80.48
2019-05-10T05:12:28.429Z,81.44
2019-05-10T05:15:32.742Z,81.50
2019-05-10T05:18:36.447Z,82.85
2019-05-10T05:21:40.441Z,82.70
2019-05-10T05:24:44.170Z,82.92
2019-05-10T05:27:47.880Z,83.54
2019-05-10T05:30:51.590Z,83.36
2019-05-10T05:33:59.081Z,83.38
2019-05-10T05:37:00.752Z,82.86
2019-05-10T05:40:05.094Z,81.63
2019-05-10T05:43:09.913Z,80.95
2019-05-10T05:46:14.553Z,81.38
2019-05-10T05:49:18.609Z,81.26
2019-05-10T05:52:22.320Z,82.08
2019-05-10T05:55:30.589Z,81.15
2019-05-10T05:58:31.507Z,81.09
2019-05-10T06:01:35.223Z,80.78
2019-05-10T06:04:40.894Z,80.83
2019-05-10T06:07:44.379Z,80.12
2019-05-10T06:10:56.925Z,79.44
2019-05-10T06:13:53.839Z,80.43
2019-05-10T06:16:57.548Z,79.86
2019-05-10T06:20:05.871Z,79.82
2019-05-10T06:23:07.340Z,79.72
2019-05-10T06:26:21.056Z,79.70
2019-05-10T06:29:17.854Z,79.54
2019-05-10T06:32:22.076Z,79.38
2019-05-10T06:35:25.802Z,79.69
2019-05-10T06:38:29.508Z,79.81
2019-05-10T06:41:33.233Z,79.86
2019-05-10T06:44:36.951Z,79.80
2019-05-10T06:47:42.104Z,79.58
2019-05-10T06:50:46.380Z,80.22
2019-05-10T06:53:53.603Z,80.24
2019-05-10T06:56:56.187Z,79.98
2019-05-10T07:00:06.154Z,79.84
2019-05-10T07:03:05.601Z,79.24
2019-05-10T07:06:09.355Z,79.53
2019-05-10T07:09:13.128Z,79.45
2019-05-10T07:12:18.470Z,79.42
2019-05-10T07:15:22.397Z,80.30
2019-05-10T07:18:26.112Z,79.22
2019-05-10T07:21:30.178Z,79.70
2019-05-10T07:24:33.915Z,79.86
2019-05-10T07:27:38.701Z,79.00
2019-05-10T07:30:42.677Z,78.82
2019-05-10T07:33:46.384Z,78.98
2019-05-10T07:36:50.133Z,79.10
2019-05-10T07:39:53.808Z,79.84
2019-05-10T07:42:57.521Z,80.58
2019-05-10T07:46:06.553Z,81.08
2019-05-10T07:49:06.726Z,81.34
2019-05-10T07:52:10.452Z,82.33
2019-05-10T07:55:17.945Z,83.31
2019-05-10T07:58:20.019Z,83.11
2019-05-10T08:01:33.085Z,82.97
2019-05-10T08:04:33.594Z,83.40
2019-05-10T08:07:34.956Z,83.30
2019-05-10T08:10:39.483Z,82.83
2019-05-10T08:13:43.369Z,82.74
2019-05-10T08:16:49.811Z,82.31
2019-05-10T08:19:52.600Z,81.38
2019-05-10T08:22:56.320Z,81.41
2019-05-10T08:26:04.218Z,81.42
2019-05-10T08:29:07.498Z,80.77
2019-05-10T08:32:12.811Z,80.49
2019-05-10T08:35:18.691Z,80.04
2019-05-10T08:38:22.122Z,80.20
2019-05-10T08:41:25.825Z,80.07
2019-05-10T08:44:29.558Z,79.14
2019-05-10T08:47:33.278Z,77.76
2019-05-10T08:50:49.782Z,79.09
2019-05-10T08:53:47.160Z,78.71
2019-05-10T08:56:55.029Z,78.80
2019-05-10T09:00:02.202Z,78.31
2019-05-10T09:03:00.866Z,78.31
2019-05-10T09:06:11.963Z,79.13
2019-05-10T09:09:12.378Z,78.04
2019-05-10T09:12:15.983Z,77.32
2019-05-10T09:15:22.113Z,77.20
2019-05-10T09:18:25.136Z,77.72
2019-05-10T09:21:28.847Z,77.36
2019-05-10T09:24:34.966Z,76.65
2019-05-10T09:27:38.003Z,77.69
2019-05-10T09:30:56.407Z,77.36
2019-05-10T09:33:49.615Z,76.87
2019-05-10T09:36:53.123Z,77.08
2019-05-10T09:40:05.405Z,77.18
2019-05-10T09:43:05.148Z,76.41
2019-05-10T09:46:08.124Z,77.48
2019-05-10T09:49:18.119Z,76.70
2019-05-10T09:52:18.778Z,76.17
2019-05-10T09:55:22.744Z,76.92
2019-05-10T09:58:28.223Z,78.52
2019-05-10T10:01:31.896Z,80.57
2019-05-10T10:04:37.245Z,81.23
2019-05-10T10:07:41.063Z,80.70
2019-05-10T10:10:47.399Z,82.37
2019-05-10T10:13:58.926Z,81.02
2019-05-10T10:17:00.500Z,79.61
2019-05-10T10:20:01.545Z,80.79
2019-05-10T10:23:07.257Z,79.64
2019-05-10T10:26:12.556Z,80.72
2019-05-10T10:29:17.280Z,80.21
2019-05-10T10:32:24.632Z,80.42
2019-05-10T10:35:29.710Z,79.67
2019-05-10T10:38:37.046Z,79.52
2019-05-10T10:41:37.561Z,78.79
2019-05-10T10:44:41.241Z,77.31
2019-05-10T10:47:47.154Z,77.54
2019-05-10T10:50:55.587Z,77.98
2019-05-10T10:53:58.038Z,77.15
2019-05-10T10:57:01.605Z,77.47
2019-05-10T11:00:07.622Z,77.90
2019-05-10T11:03:11.412Z,77.30
2019-05-10T11:06:15.514Z,76.54
2019-05-10T11:09:20.688Z,77.11
2019-05-10T11:12:24.574Z,77.36
2019-05-10T11:15:34.786Z,76.89
2019-05-10T11:18:34.445Z,76.42
2019-05-10T11:21:38.479Z,77.60
2019-05-10T11:24:42.191Z,77.36
2019-05-10T11:27:47.693Z,77.66
2019-05-10T11:30:51.652Z,77.78
2019-05-10T11:33:58.390Z,78.78
2019-05-10T11:37:00.771Z,79.14
2019-05-10T11:40:04.655Z,79.36
2019-05-10T11:43:08.327Z,79.21
2019-05-10T11:46:12.030Z,77.39
2019-05-10T11:49:15.971Z,76.16
2019-05-10T11:52:21.714Z,75.67
2019-05-10T11:55:25.090Z,75.52
2019-05-10T11:58:31.078Z,75.71
2019-05-10T12:01:34.651Z,75.19
2019-05-10T12:04:40.390Z,74.73
2019-05-10T12:07:46.162Z,72.37
2019-05-10T12:10:59.093Z,72.05
2019-05-10T12:13:57.492Z,71.70
2019-05-10T12:17:05.597Z,71.74
2019-05-10T12:20:06.060Z,71.77
2019-05-10T12:23:13.251Z,72.16
2019-05-10T12:27:13.025Z,72.20
2019-05-10T12:29:21.391Z,73.86
2019-05-10T12:32:27.119Z,71.24
2019-05-10T12:35:35.596Z,71.61
2019-05-10T12:38:38.449Z,72.12
2019-05-10T12:41:48.409Z,73.24
2019-05-10T12:44:48.257Z,73.58
2019-05-10T12:47:52.123Z,73.23
2019-05-10T12:50:59.496Z,72.28
2019-05-10T12:54:01.257Z,73.46
2019-05-10T12:57:05.031Z,73.08
2019-05-10T13:00:13.063Z,71.62
2019-05-10T13:03:18.677Z,71.89
2019-05-10T13:06:20.973Z,70.71
2019-05-10T13:09:38.539Z,71.86
2019-05-10T13:12:30.141Z,71.52
2019-05-10T13:15:33.840Z,71.44
2019-05-10T13:18:53.012Z,69.15
2019-05-10T13:21:42.959Z,68.15
2019-05-10T13:24:46.992Z,68.47
2019-05-10T13:27:51.289Z,69.13
2019-05-10T13:30:59.790Z,69.71
2019-05-10T13:34:00.438Z,69.42
2019-05-10T13:37:04.205Z,69.35
2019-05-10T13:40:08.649Z,67.96
2019-05-10T13:43:17.307Z,66.87
2019-05-10T13:46:17.954Z,66.65
2019-05-10T13:49:21.659Z,66.01
2019-05-10T13:52:29.773Z,66.84
2019-05-10T13:55:30.902Z,65.36
2019-05-10T13:58:34.594Z,65.89
2019-05-10T14:01:38.312Z,65.21
2019-05-10T14:04:42.071Z,65.42
2019-05-10T14:07:51.882Z,64.52
2019-05-10T14:10:55.895Z,65.71
2019-05-10T14:13:57.004Z,66.04
2019-05-10T14:17:00.744Z,65.39
2019-05-10T14:20:05.472Z,64.92
2019-05-10T14:23:09.119Z,64.35
2019-05-10T14:26:15.833Z,64.63
2019-05-10T14:29:18.257Z,62.79
2019-05-10T14:32:21.967Z,64.13
2019-05-10T14:35:25.711Z,61.65
2019-05-10T14:38:29.413Z,62.42
2019-05-10T14:41:33.124Z,60.93
2019-05-10T14:44:38.487Z,59.73
2019-05-10T14:47:50.008Z,60.99
2019-05-10T14:50:47.681Z,60.40
2019-05-10T14:53:51.396Z,60.31
2019-05-10T14:56:55.123Z,61.96
2019-05-10T14:59:58.920Z,61.48
2019-05-10T15:03:03.803Z,61.51
2019-05-10T15:06:07.602Z,61.62
2019-05-10T15:09:20.558Z,61.97
2019-05-10T15:12:22.265Z,61.26
2019-05-10T15:15:22.886Z,62.14
2019-05-10T15:18:26.643Z,60.54
2019-05-10T15:21:30.355Z,59.79
2019-05-10T15:24:34.059Z,60.83
2019-05-10T15:27:37.770Z,59.96
2019-05-10T15:30:46.019Z,60.97
2019-05-10T15:33:47.640Z,61.67
2019-05-10T15:36:51.384Z,60.04
2019-05-10T15:39:55.083Z,59.41
2019-05-10T15:42:58.794Z,60.32
2019-05-10T15:46:02.493Z,59.66
2019-05-10T15:49:06.479Z,59.51
2019-05-10T15:55:17.137Z,58.11
2019-05-10T15:58:21.444Z,57.06
2019-05-10T15:59:23.579Z,58.24
2019-05-10T16:01:27.035Z,57.29
2019-05-10T16:04:31.276Z,57.30
2019-05-10T16:07:35.006Z,58.11
2019-05-10T16:10:40.751Z,57.46
2019-05-10T16:13:44.144Z,57.02
2019-05-10T16:16:47.852Z,55.20
2019-05-10T16:19:59.520Z,57.69
2019-05-10T16:22:56.996Z,55.96
2019-05-10T16:26:00.805Z,56.15
2019-05-10T16:29:04.585Z,56.37
2019-05-10T16:32:08.284Z,56.38
2019-05-10T16:35:14.546Z,56.36
2019-05-10T16:38:18.317Z,57.43
2019-05-10T16:41:22.134Z,56.87
2019-05-10T16:44:26.038Z,56.12
2019-05-10T16:47:29.908Z,58.04
2019-05-10T16:50:33.912Z,56.53
2019-05-10T16:53:43.873Z,57.43
2019-05-10T16:56:43.376Z,56.32
2019-05-10T16:59:47.095Z,56.27
2019-05-10T17:02:50.793Z,55.91
2019-05-10T17:05:58.640Z,56.42
2019-05-10T17:08:59.978Z,57.59
2019-05-10T17:12:03.688Z,59.63
2019-05-10T17:15:08.489Z,57.99
2019-05-10T17:18:17.412Z,58.00
2019-05-10T17:21:17.629Z,56.68
2019-05-10T17:24:24.019Z,56.62
2019-05-10T17:27:26.927Z,58.68
2019-05-10T17:30:31.005Z,59.52
2019-05-10T17:33:36.842Z,61.93
2019-05-10T17:36:40.226Z,59.35
2019-05-10T17:39:43.928Z,59.62
2019-05-10T17:42:51.238Z,61.92
2019-05-10T17:45:53.313Z,57.26
2019-05-10T17:48:57.377Z,58.40
2019-05-10T17:52:01.093Z,58.44
2019-05-10T17:55:05.380Z,61.22
2019-05-10T17:58:09.105Z,61.06
2019-05-10T18:01:13.061Z,59.21
2019-05-10T18:04:16.776Z,58.81
2019-05-10T18:07:20.496Z,59.25
2019-05-10T18:10:24.168Z,60.07
2019-05-10T18:13:27.880Z,60.34
2019-05-10T18:16:31.933Z,61.66
2019-05-10T18:19:35.727Z,60.89
2019-05-10T18:22:43.416Z,61.86
2019-05-10T18:25:44.933Z,61.60
2019-05-10T18:28:48.754Z,62.90
2019-05-10T18:31:56.321Z,62.12
2019-05-10T18:34:57.896Z,63.50
2019-05-10T18:38:01.670Z,62.63
2019-05-10T18:41:10.056Z,64.39
2019-05-10T18:44:14.308Z,66.02
2019-05-10T18:47:16.992Z,65.22
2019-05-10T18:50:21.010Z,64.39
2019-05-10T18:53:24.726Z,64.50
2019-05-10T18:56:31.353Z,65.59
2019-05-10T18:59:33.952Z,64.42
2019-05-10T19:02:37.996Z,67.01
2019-05-10T19:05:41.692Z,67.40
2019-05-10T19:08:45.404Z,68.32
2019-05-10T19:11:49.495Z,68.00
2019-05-10T19:14:53.651Z,69.34
2019-05-10T19:17:57.424Z,69.73
2019-05-10T19:21:01.436Z,69.60
2019-05-10T19:24:05.162Z,69.81
2019-05-10T19:27:09.418Z,70.00
2019-05-10T19:30:20.099Z,71.10
2019-05-10T19:33:19.391Z,70.85
2019-05-10T19:36:23.168Z,70.59
2019-05-10T19:39:26.891Z,71.07
2019-05-10T19:42:31.663Z,71.29
2019-05-10T19:45:35.846Z,71.04
2019-05-10T19:48:39.548Z,71.65
2019-05-10T19:51:48.549Z,71.82
2019-05-10T19:54:48.686Z,72.13
2019-05-10T19:57:54.643Z,72.02
2019-05-10T20:00:57.826Z,71.87
2019-05-10T20:04:01.864Z,72.72
2019-05-10T20:07:05.631Z,72.40
2019-05-10T20:10:09.680Z,72.97
2019-05-10T20:13:13.384Z,73.14
2019-05-10T20:16:17.347Z,73.39
2019-05-10T20:19:21.033Z,73.41
2019-05-10T20:22:24.728Z,73.57
2019-05-10T20:25:28.443Z,74.22
2019-05-10T20:28:32.140Z,73.40
2019-05-10T20:31:35.909Z,73.70
2019-05-10T20:34:39.613Z,74.75
2019-05-10T20:37:43.614Z,74.14
2019-05-10T20:40:47.659Z,74.28
2019-05-10T20:43:51.353Z,74.63
2019-05-10T20:46:55.063Z,74.59
2019-05-10T20:49:58.766Z,74.88
2019-05-10T20:53:02.470Z,75.18
2019-05-10T20:56:06.174Z,75.08
2019-05-10T20:59:09.899Z,75.05
2019-05-10T21:02:13.610Z,75.00
2019-05-10T21:05:17.332Z,75.50
2019-05-10T21:08:21.055Z,75.18
2019-05-10T21:11:25.032Z,75.84
2019-05-10T21:14:28.723Z,75.70
2019-05-10T21:17:32.432Z,76.37
2019-05-10T21:20:36.468Z,76.33
2019-05-10T21:23:40.180Z,76.61
2019-05-10T21:26:43.892Z,76.55
2019-05-10T21:29:47.705Z,76.59
2019-05-10T21:32:51.667Z,76.54
2019-05-10T21:35:55.354Z,76.39
2019-05-10T21:38:59.431Z,76.66
2019-05-10T21:42:03.435Z,76.60
2019-05-10T21:45:07.581Z,77.25
2019-05-10T21:48:11.285Z,76.71
2019-05-10T21:51:14.977Z,77.08
2019-05-10T21:54:18.945Z,77.46
2019-05-10T21:57:22.722Z,77.53
2019-05-10T22:00:29.203Z,77.37
2019-05-10T22:03:32.923Z,77.38
2019-05-10T22:06:36.690Z,77.64
2019-05-10T22:09:40.398Z,77.99
2019-05-10T22:12:44.107Z,78.24
2019-05-10T22:15:47.802Z,77.88
2019-05-10T22:18:59.745Z,77.68
2019-05-10T22:22:03.445Z,77.62
2019-05-10T22:25:07.340Z,77.91
2019-05-10T22:28:11.032Z,78.07
2019-05-10T22:31:14.791Z,77.92
2019-05-10T22:34:18.481Z,78.31
2019-05-10T22:37:22.180Z,78.57
2019-05-10T22:40:25.880Z,78.57
2019-05-10T22:43:29.678Z,78.70
2019-05-10T22:46:33.667Z,78.78
2019-05-10T22:49:37.413Z,78.86
2019-05-10T22:52:41.382Z,78.62
2019-05-10T22:55:45.078Z,78.39
2019-05-10T22:58:48.781Z,78.43
2019-05-10T23:01:52.490Z,78.47
2019-05-10T23:04:56.203Z,78.31
2019-05-10T23:07:59.895Z,78.42
2019-05-10T23:11:03.598Z,78.68
2019-05-10T23:14:07.374Z,78.87
2019-05-10T23:17:11.068Z,78.93
2019-05-10T23:20:15.133Z,78.83
2019-05-10T23:23:21.021Z,78.16
2019-05-10T23:26:24.552Z,78.26
2019-05-10T23:29:28.253Z,78.75
2019-05-10T23:32:31.939Z,79.04
2019-05-10T23:35:35.644Z,79.22
2019-05-10T23:38:39.341Z,79.23
2019-05-10T23:41:43.355Z,79.24
2019-05-10T23:44:47.370Z,79.14
2019-05-10T23:47:51.082Z,79.35
2019-05-10T23:50:54.813Z,79.36
2019-05-10T23:53:58.769Z,79.30
2019-05-10T23:57:02.799Z,79.31
